sensor_id;sensor_type;location;lat;lon;timestamp;P1;durP1;ratioP1;P2;durP2;ratioP2
40453;SDS011;26160;51.858;4.398;2023-05-07T00:00:44;38.85;;;31.15;;
40453;SDS011;26160;51.858;4.398;2023-05-07T00:03:10;36.42;;;32.38;;
40453;SDS011;26160;51.858;4.398;2023-05-07T00:05:36;35.72;;;31.17;;
40453;SDS011;26160;51.858;4.398;2023-05-07T00:08:03;38.72;;;32.40;;
40453;SDS011;26160;51.858;4.398;2023-05-07T00:10:33;43.05;;;33.92;;
40453;SDS011;26160;51.858;4.398;2023-05-07T00:12:59;42.25;;;34.28;;
40453;SDS011;26160;51.858;4.398;2023-05-07T00:15:25;41.10;;;34.25;;
40453;SDS011;26160;51.858;4.398;2023-05-07T00:17:52;43.50;;;34.20;;
40453;SDS011;26160;51.858;4.398;2023-05-07T00:20:18;40.50;;;34.08;;
40453;SDS011;26160;51.858;4.398;2023-05-07T00:22:44;40.15;;;35.35;;
40453;SDS011;26160;51.858;4.398;2023-05-07T00:25:11;42.90;;;36.30;;
40453;SDS011;26160;51.858;4.398;2023-05-07T00:27:37;42.38;;;36.28;;
40453;SDS011;26160;51.858;4.398;2023-05-07T00:30:03;42.88;;;37.13;;
40453;SDS011;26160;51.858;4.398;2023-05-07T00:32:30;44.03;;;36.45;;
40453;SDS011;26160;51.858;4.398;2023-05-07T00:34:56;44.47;;;37.80;;
40453;SDS011;26160;51.858;4.398;2023-05-07T00:37:22;40.75;;;36.25;;
40453;SDS011;26160;51.858;4.398;2023-05-07T00:39:48;45.60;;;40.40;;
40453;SDS011;26160;51.858;4.398;2023-05-07T00:42:14;45.88;;;41.08;;
40453;SDS011;26160;51.858;4.398;2023-05-07T00:44:41;48.40;;;42.95;;
40453;SDS011;26160;51.858;4.398;2023-05-07T00:47:07;53.03;;;45.33;;
40453;SDS011;26160;51.858;4.398;2023-05-07T00:49:43;48.42;;;43.13;;
40453;SDS011;26160;51.858;4.398;2023-05-07T00:52:11;61.33;;;50.03;;
40453;SDS011;26160;51.858;4.398;2023-05-07T00:54:40;48.45;;;43.20;;
40453;SDS011;26160;51.858;4.398;2023-05-07T00:57:07;53.60;;;47.75;;
40453;SDS011;26160;51.858;4.398;2023-05-07T00:59:37;60.53;;;50.85;;
40453;SDS011;26160;51.858;4.398;2023-05-07T01:02:03;57.05;;;48.97;;
40453;SDS011;26160;51.858;4.398;2023-05-07T01:04:30;57.20;;;50.83;;
40453;SDS011;26160;51.858;4.398;2023-05-07T01:06:56;65.13;;;54.13;;
40453;SDS011;26160;51.858;4.398;2023-05-07T01:09:24;53.92;;;46.90;;
40453;SDS011;26160;51.858;4.398;2023-05-07T01:11:50;61.50;;;52.55;;
40453;SDS011;26160;51.858;4.398;2023-05-07T01:14:17;59.42;;;49.85;;
40453;SDS011;26160;51.858;4.398;2023-05-07T01:16:44;57.30;;;51.00;;
40453;SDS011;26160;51.858;4.398;2023-05-07T01:19:11;61.05;;;50.85;;
40453;SDS011;26160;51.858;4.398;2023-05-07T01:21:39;62.92;;;52.45;;
40453;SDS011;26160;51.858;4.398;2023-05-07T01:24:12;65.55;;;52.28;;
40453;SDS011;26160;51.858;4.398;2023-05-07T01:26:39;59.03;;;50.28;;
40453;SDS011;26160;51.858;4.398;2023-05-07T01:29:05;60.22;;;50.97;;
40453;SDS011;26160;51.858;4.398;2023-05-07T01:31:32;59.70;;;50.00;;
40453;SDS011;26160;51.858;4.398;2023-05-07T01:34:00;59.40;;;49.42;;
40453;SDS011;26160;51.858;4.398;2023-05-07T01:36:29;56.60;;;48.17;;
40453;SDS011;26160;51.858;4.398;2023-05-07T01:38:55;54.67;;;46.55;;
40453;SDS011;26160;51.858;4.398;2023-05-07T01:41:24;63.20;;;50.03;;
40453;SDS011;26160;51.858;4.398;2023-05-07T01:43:50;57.35;;;47.97;;
40453;SDS011;26160;51.858;4.398;2023-05-07T01:46:17;53.13;;;45.30;;
40453;SDS011;26160;51.858;4.398;2023-05-07T01:48:45;54.47;;;46.72;;
40453;SDS011;26160;51.858;4.398;2023-05-07T01:51:11;50.97;;;43.80;;
40453;SDS011;26160;51.858;4.398;2023-05-07T01:53:39;49.13;;;42.80;;
40453;SDS011;26160;51.858;4.398;2023-05-07T01:56:06;48.35;;;42.65;;
40453;SDS011;26160;51.858;4.398;2023-05-07T01:58:33;47.92;;;41.13;;
40453;SDS011;26160;51.858;4.398;2023-05-07T02:00:59;46.20;;;38.90;;
40453;SDS011;26160;51.858;4.398;2023-05-07T02:03:25;43.25;;;37.50;;
40453;SDS011;26160;51.858;4.398;2023-05-07T02:05:51;41.25;;;36.90;;
40453;SDS011;26160;51.858;4.398;2023-05-07T02:08:17;39.55;;;34.33;;
40453;SDS011;26160;51.858;4.398;2023-05-07T02:10:43;38.10;;;34.05;;
40453;SDS011;26160;51.858;4.398;2023-05-07T02:13:09;40.00;;;35.83;;
40453;SDS011;26160;51.858;4.398;2023-05-07T02:15:36;44.03;;;36.58;;
40453;SDS011;26160;51.858;4.398;2023-05-07T02:18:03;37.22;;;33.35;;
40453;SDS011;26160;51.858;4.398;2023-05-07T02:26:27;35.20;;;31.35;;
40453;SDS011;26160;51.858;4.398;2023-05-07T02:29:04;33.75;;;29.67;;
40453;SDS011;26160;51.858;4.398;2023-05-07T02:31:30;36.30;;;32.38;;
40453;SDS011;26160;51.858;4.398;2023-05-07T02:33:59;33.88;;;30.10;;
40453;SDS011;26160;51.858;4.398;2023-05-07T02:36:26;32.40;;;28.98;;
40453;SDS011;26160;51.858;4.398;2023-05-07T02:38:52;36.38;;;32.47;;
40453;SDS011;26160;51.858;4.398;2023-05-07T02:41:18;33.67;;;30.05;;
40453;SDS011;26160;51.858;4.398;2023-05-07T02:43:45;36.47;;;31.58;;
40453;SDS011;26160;51.858;4.398;2023-05-07T02:46:12;31.35;;;28.00;;
40453;SDS011;26160;51.858;4.398;2023-05-07T02:48:38;31.95;;;28.48;;
40453;SDS011;26160;51.858;4.398;2023-05-07T02:51:04;31.63;;;28.33;;
40453;SDS011;26160;51.858;4.398;2023-05-07T02:53:31;35.53;;;31.73;;
40453;SDS011;26160;51.858;4.398;2023-05-07T02:55:57;32.55;;;29.20;;
40453;SDS011;26160;51.858;4.398;2023-05-07T02:58:25;31.08;;;27.73;;
40453;SDS011;26160;51.858;4.398;2023-05-07T03:00:52;30.10;;;26.90;;
40453;SDS011;26160;51.858;4.398;2023-05-07T03:03:20;31.80;;;27.88;;
40453;SDS011;26160;51.858;4.398;2023-05-07T03:05:46;28.38;;;25.45;;
40453;SDS011;26160;51.858;4.398;2023-05-07T03:08:12;29.55;;;25.85;;
40453;SDS011;26160;51.858;4.398;2023-05-07T03:10:38;28.50;;;25.58;;
40453;SDS011;26160;51.858;4.398;2023-05-07T03:13:05;29.38;;;26.25;;
40453;SDS011;26160;51.858;4.398;2023-05-07T03:15:31;26.85;;;22.67;;
40453;SDS011;26160;51.858;4.398;2023-05-07T03:17:57;24.92;;;22.35;;
40453;SDS011;26160;51.858;4.398;2023-05-07T03:20:23;24.95;;;22.52;;
40453;SDS011;26160;51.858;4.398;2023-05-07T03:22:49;23.20;;;20.75;;
40453;SDS011;26160;51.858;4.398;2023-05-07T03:25:15;23.20;;;20.88;;
40453;SDS011;26160;51.858;4.398;2023-05-07T03:27:41;21.90;;;19.48;;
40453;SDS011;26160;51.858;4.398;2023-05-07T03:30:08;25.00;;;20.88;;
40453;SDS011;26160;51.858;4.398;2023-05-07T03:32:35;23.60;;;20.40;;
40453;SDS011;26160;51.858;4.398;2023-05-07T03:35:01;21.83;;;19.38;;
40453;SDS011;26160;51.858;4.398;2023-05-07T03:37:28;19.75;;;17.75;;
40453;SDS011;26160;51.858;4.398;2023-05-07T03:39:54;18.45;;;16.65;;
40453;SDS011;26160;51.858;4.398;2023-05-07T03:42:20;17.42;;;15.63;;
40453;SDS011;26160;51.858;4.398;2023-05-07T03:44:46;19.38;;;17.33;;
40453;SDS011;26160;51.858;4.398;2023-05-07T03:47:12;18.92;;;16.90;;
40453;SDS011;26160;51.858;4.398;2023-05-07T03:49:39;21.33;;;15.80;;
40453;SDS011;26160;51.858;4.398;2023-05-07T03:52:05;20.10;;;16.80;;
40453;SDS011;26160;51.858;4.398;2023-05-07T03:54:31;18.13;;;16.23;;
40453;SDS011;26160;51.858;4.398;2023-05-07T03:56:57;20.52;;;18.02;;
40453;SDS011;26160;51.858;4.398;2023-05-07T03:59:24;20.50;;;18.15;;
40453;SDS011;26160;51.858;4.398;2023-05-07T04:01:50;19.10;;;17.20;;
40453;SDS011;26160;51.858;4.398;2023-05-07T04:04:16;19.52;;;16.95;;
40453;SDS011;26160;51.858;4.398;2023-05-07T04:06:42;19.58;;;16.92;;
40453;SDS011;26160;51.858;4.398;2023-05-07T04:09:08;17.30;;;15.52;;
40453;SDS011;26160;51.858;4.398;2023-05-07T04:11:35;17.83;;;16.10;;
40453;SDS011;26160;51.858;4.398;2023-05-07T04:14:01;19.75;;;16.73;;
40453;SDS011;26160;51.858;4.398;2023-05-07T04:16:27;18.67;;;16.73;;
40453;SDS011;26160;51.858;4.398;2023-05-07T04:18:53;22.60;;;17.25;;
40453;SDS011;26160;51.858;4.398;2023-05-07T04:21:20;19.17;;;15.98;;
40453;SDS011;26160;51.858;4.398;2023-05-07T04:23:47;18.48;;;15.40;;
40453;SDS011;26160;51.858;4.398;2023-05-07T04:26:13;20.30;;;17.08;;
40453;SDS011;26160;51.858;4.398;2023-05-07T04:28:40;17.85;;;15.38;;
40453;SDS011;26160;51.858;4.398;2023-05-07T04:31:07;18.05;;;16.13;;
40453;SDS011;26160;51.858;4.398;2023-05-07T04:33:33;17.80;;;15.95;;
40453;SDS011;26160;51.858;4.398;2023-05-07T04:36:02;19.02;;;16.95;;
40453;SDS011;26160;51.858;4.398;2023-05-07T04:38:30;16.77;;;14.82;;
40453;SDS011;26160;51.858;4.398;2023-05-07T04:40:57;18.45;;;16.65;;
40453;SDS011;26160;51.858;4.398;2023-05-07T04:43:28;16.50;;;14.90;;
40453;SDS011;26160;51.858;4.398;2023-05-07T04:45:54;19.80;;;17.70;;
40453;SDS011;26160;51.858;4.398;2023-05-07T04:48:20;18.25;;;16.15;;
40453;SDS011;26160;51.858;4.398;2023-05-07T04:50:49;18.48;;;16.63;;
40453;SDS011;26160;51.858;4.398;2023-05-07T04:53:16;18.73;;;16.58;;
40453;SDS011;26160;51.858;4.398;2023-05-07T04:55:43;17.88;;;16.00;;
40453;SDS011;26160;51.858;4.398;2023-05-07T04:58:10;19.33;;;16.15;;
40453;SDS011;26160;51.858;4.398;2023-05-07T05:00:37;19.58;;;17.48;;
40453;SDS011;26160;51.858;4.398;2023-05-07T05:03:05;17.15;;;15.32;;
40453;SDS011;26160;51.858;4.398;2023-05-07T05:05:32;17.15;;;15.52;;
40453;SDS011;26160;51.858;4.398;2023-05-07T05:07:58;18.42;;;15.02;;
40453;SDS011;26160;51.858;4.398;2023-05-07T05:10:24;19.35;;;16.45;;
40453;SDS011;26160;51.858;4.398;2023-05-07T05:12:50;16.77;;;14.00;;
40453;SDS011;26160;51.858;4.398;2023-05-07T05:15:17;18.65;;;15.93;;
40453;SDS011;26160;51.858;4.398;2023-05-07T05:17:43;16.85;;;15.23;;
40453;SDS011;26160;51.858;4.398;2023-05-07T05:20:09;18.50;;;15.07;;
40453;SDS011;26160;51.858;4.398;2023-05-07T05:22:37;15.85;;;14.25;;
40453;SDS011;26160;51.858;4.398;2023-05-07T05:25:03;17.05;;;15.25;;
40453;SDS011;26160;51.858;4.398;2023-05-07T05:27:30;17.48;;;15.65;;
40453;SDS011;26160;51.858;4.398;2023-05-07T05:29:56;17.92;;;14.35;;
40453;SDS011;26160;51.858;4.398;2023-05-07T05:32:22;17.55;;;15.63;;
40453;SDS011;26160;51.858;4.398;2023-05-07T05:34:48;19.02;;;15.30;;
40453;SDS011;26160;51.858;4.398;2023-05-07T05:37:14;16.83;;;15.07;;
40453;SDS011;26160;51.858;4.398;2023-05-07T05:39:40;17.20;;;15.32;;
40453;SDS011;26160;51.858;4.398;2023-05-07T05:42:07;21.67;;;17.05;;
40453;SDS011;26160;51.858;4.398;2023-05-07T05:44:33;17.08;;;15.38;;
40453;SDS011;26160;51.858;4.398;2023-05-07T05:47:00;17.48;;;15.68;;
40453;SDS011;26160;51.858;4.398;2023-05-07T05:49:26;18.63;;;16.75;;
40453;SDS011;26160;51.858;4.398;2023-05-07T05:51:52;17.55;;;15.70;;
40453;SDS011;26160;51.858;4.398;2023-05-07T05:54:18;17.48;;;15.80;;
40453;SDS011;26160;51.858;4.398;2023-05-07T05:56:44;20.48;;;16.73;;
40453;SDS011;26160;51.858;4.398;2023-05-07T05:59:10;18.48;;;16.45;;
40453;SDS011;26160;51.858;4.398;2023-05-07T06:01:36;17.35;;;15.48;;
40453;SDS011;26160;51.858;4.398;2023-05-07T06:04:02;18.45;;;16.48;;
40453;SDS011;26160;51.858;4.398;2023-05-07T06:06:29;18.60;;;16.45;;
40453;SDS011;26160;51.858;4.398;2023-05-07T06:08:57;18.60;;;16.63;;
40453;SDS011;26160;51.858;4.398;2023-05-07T06:11:23;17.00;;;15.07;;
40453;SDS011;26160;51.858;4.398;2023-05-07T06:13:49;19.80;;;15.60;;
40453;SDS011;26160;51.858;4.398;2023-05-07T06:16:15;19.30;;;15.95;;
40453;SDS011;26160;51.858;4.398;2023-05-07T06:18:41;17.67;;;15.82;;
40453;SDS011;26160;51.858;4.398;2023-05-07T06:21:07;17.33;;;15.50;;
40453;SDS011;26160;51.858;4.398;2023-05-07T06:23:35;16.67;;;14.95;;
40453;SDS011;26160;51.858;4.398;2023-05-07T06:26:01;17.88;;;15.30;;
40453;SDS011;26160;51.858;4.398;2023-05-07T06:28:27;18.65;;;15.27;;
40453;SDS011;26160;51.858;4.398;2023-05-07T06:30:53;17.25;;;15.43;;
40453;SDS011;26160;51.858;4.398;2023-05-07T06:33:19;14.93;;;13.38;;
40453;SDS011;26160;51.858;4.398;2023-05-07T06:35:45;17.90;;;14.15;;
40453;SDS011;26160;51.858;4.398;2023-05-07T06:38:11;15.80;;;14.18;;
40453;SDS011;26160;51.858;4.398;2023-05-07T06:40:37;15.82;;;14.07;;
40453;SDS011;26160;51.858;4.398;2023-05-07T06:43:04;15.68;;;13.93;;
40453;SDS011;26160;51.858;4.398;2023-05-07T06:45:30;16.38;;;14.57;;
40453;SDS011;26160;51.858;4.398;2023-05-07T06:47:56;15.05;;;13.05;;
40453;SDS011;26160;51.858;4.398;2023-05-07T06:50:22;15.68;;;13.85;;
40453;SDS011;26160;51.858;4.398;2023-05-07T06:52:49;14.75;;;13.25;;
40453;SDS011;26160;51.858;4.398;2023-05-07T06:55:15;14.48;;;12.13;;
40453;SDS011;26160;51.858;4.398;2023-05-07T06:57:41;16.48;;;13.63;;
40453;SDS011;26160;51.858;4.398;2023-05-07T07:00:07;14.18;;;12.23;;
40453;SDS011;26160;51.858;4.398;2023-05-07T07:02:36;13.55;;;11.50;;
40453;SDS011;26160;51.858;4.398;2023-05-07T07:05:02;17.77;;;13.00;;
40453;SDS011;26160;51.858;4.398;2023-05-07T07:07:28;17.02;;;13.65;;
40453;SDS011;26160;51.858;4.398;2023-05-07T07:09:55;14.82;;;12.60;;
40453;SDS011;26160;51.858;4.398;2023-05-07T07:12:21;13.93;;;12.43;;
40453;SDS011;26160;51.858;4.398;2023-05-07T07:14:50;13.88;;;12.30;;
40453;SDS011;26160;51.858;4.398;2023-05-07T07:17:16;13.88;;;12.00;;
40453;SDS011;26160;51.858;4.398;2023-05-07T07:19:42;16.48;;;11.27;;
40453;SDS011;26160;51.858;4.398;2023-05-07T07:22:08;12.20;;;10.85;;
40453;SDS011;26160;51.858;4.398;2023-05-07T07:24:34;14.15;;;10.38;;
40453;SDS011;26160;51.858;4.398;2023-05-07T07:27:00;12.02;;;9.60;;
40453;SDS011;26160;51.858;4.398;2023-05-07T07:29:26;10.93;;;8.93;;
40453;SDS011;26160;51.858;4.398;2023-05-07T07:31:52;11.88;;;8.52;;
40453;SDS011;26160;51.858;4.398;2023-05-07T07:34:19;10.48;;;9.10;;
40453;SDS011;26160;51.858;4.398;2023-05-07T07:36:45;11.38;;;8.32;;
40453;SDS011;26160;51.858;4.398;2023-05-07T07:39:11;12.65;;;8.13;;
40453;SDS011;26160;51.858;4.398;2023-05-07T07:41:37;8.02;;;7.25;;
40453;SDS011;26160;51.858;4.398;2023-05-07T07:44:03;9.95;;;7.45;;
40453;SDS011;26160;51.858;4.398;2023-05-07T07:46:34;9.00;;;7.13;;
40453;SDS011;26160;51.858;4.398;2023-05-07T07:49:00;9.48;;;7.65;;
40453;SDS011;26160;51.858;4.398;2023-05-07T07:51:26;8.00;;;7.15;;
40453;SDS011;26160;51.858;4.398;2023-05-07T07:53:52;11.05;;;7.90;;
40453;SDS011;26160;51.858;4.398;2023-05-07T07:56:18;10.27;;;7.75;;
40453;SDS011;26160;51.858;4.398;2023-05-07T07:58:44;10.25;;;7.50;;
40453;SDS011;26160;51.858;4.398;2023-05-07T08:01:10;8.48;;;7.60;;
40453;SDS011;26160;51.858;4.398;2023-05-07T08:03:38;11.00;;;7.72;;
40453;SDS011;26160;51.858;4.398;2023-05-07T08:06:04;11.02;;;8.18;;
40453;SDS011;26160;51.858;4.398;2023-05-07T08:08:30;12.60;;;7.93;;
40453;SDS011;26160;51.858;4.398;2023-05-07T08:10:56;10.70;;;8.75;;
40453;SDS011;26160;51.858;4.398;2023-05-07T08:13:23;11.95;;;9.35;;
40453;SDS011;26160;51.858;4.398;2023-05-07T08:15:50;11.52;;;9.77;;
40453;SDS011;26160;51.858;4.398;2023-05-07T08:18:16;15.43;;;10.77;;
40453;SDS011;26160;51.858;4.398;2023-05-07T08:20:42;10.43;;;9.25;;
40453;SDS011;26160;51.858;4.398;2023-05-07T08:23:08;11.05;;;9.48;;
40453;SDS011;26160;51.858;4.398;2023-05-07T08:25:34;14.82;;;11.27;;
40453;SDS011;26160;51.858;4.398;2023-05-07T08:28:00;12.20;;;10.50;;
40453;SDS011;26160;51.858;4.398;2023-05-07T08:30:26;14.13;;;10.18;;
40453;SDS011;26160;51.858;4.398;2023-05-07T08:32:53;12.45;;;10.35;;
40453;SDS011;26160;51.858;4.398;2023-05-07T08:35:19;22.65;;;11.23;;
40453;SDS011;26160;51.858;4.398;2023-05-07T08:37:45;16.50;;;11.18;;
40453;SDS011;26160;51.858;4.398;2023-05-07T08:40:11;20.00;;;10.77;;
40453;SDS011;26160;51.858;4.398;2023-05-07T08:42:38;15.23;;;10.70;;
40453;SDS011;26160;51.858;4.398;2023-05-07T08:45:09;12.43;;;10.68;;
40453;SDS011;26160;51.858;4.398;2023-05-07T08:47:43;15.50;;;12.15;;
40453;SDS011;26160;51.858;4.398;2023-05-07T08:50:12;11.38;;;9.93;;
40453;SDS011;26160;51.858;4.398;2023-05-07T08:52:41;11.80;;;9.93;;
40453;SDS011;26160;51.858;4.398;2023-05-07T08:55:08;19.83;;;11.32;;
40453;SDS011;26160;51.858;4.398;2023-05-07T08:57:34;27.52;;;11.10;;
40453;SDS011;26160;51.858;4.398;2023-05-07T09:00:02;13.75;;;10.13;;
40453;SDS011;26160;51.858;4.398;2023-05-07T09:02:29;46.05;;;10.75;;
40453;SDS011;26160;51.858;4.398;2023-05-07T09:04:55;15.25;;;8.80;;
40453;SDS011;26160;51.858;4.398;2023-05-07T09:07:22;22.45;;;9.93;;
40453;SDS011;26160;51.858;4.398;2023-05-07T09:09:48;20.35;;;10.45;;
40453;SDS011;26160;51.858;4.398;2023-05-07T09:12:14;10.35;;;9.18;;
40453;SDS011;26160;51.858;4.398;2023-05-07T09:14:40;15.15;;;8.70;;
40453;SDS011;26160;51.858;4.398;2023-05-07T09:17:06;12.70;;;9.45;;
40453;SDS011;26160;51.858;4.398;2023-05-07T09:19:32;12.88;;;8.95;;
40453;SDS011;26160;51.858;4.398;2023-05-07T09:22:02;12.15;;;8.75;;
40453;SDS011;26160;51.858;4.398;2023-05-07T09:24:29;11.68;;;8.27;;
40453;SDS011;26160;51.858;4.398;2023-05-07T09:27:00;9.13;;;7.95;;
40453;SDS011;26160;51.858;4.398;2023-05-07T09:29:27;14.13;;;8.95;;
40453;SDS011;26160;51.858;4.398;2023-05-07T09:32:03;9.68;;;7.95;;
40453;SDS011;26160;51.858;4.398;2023-05-07T09:34:31;11.73;;;10.13;;
40453;SDS011;26160;51.858;4.398;2023-05-07T09:37:05;7.85;;;7.13;;
40453;SDS011;26160;51.858;4.398;2023-05-07T09:39:41;9.90;;;7.97;;
40453;SDS011;26160;51.858;4.398;2023-05-07T09:42:11;8.60;;;7.18;;
40453;SDS011;26160;51.858;4.398;2023-05-07T09:44:38;11.77;;;8.40;;
40453;SDS011;26160;51.858;4.398;2023-05-07T09:47:05;10.35;;;9.05;;
40453;SDS011;26160;51.858;4.398;2023-05-07T09:49:33;13.35;;;10.32;;
40453;SDS011;26160;51.858;4.398;2023-05-07T09:52:02;14.70;;;10.52;;
40453;SDS011;26160;51.858;4.398;2023-05-07T09:54:31;12.48;;;11.18;;
40453;SDS011;26160;51.858;4.398;2023-05-07T09:56:59;13.93;;;10.50;;
40453;SDS011;26160;51.858;4.398;2023-05-07T09:59:31;11.10;;;9.82;;
40453;SDS011;26160;51.858;4.398;2023-05-07T10:01:58;32.97;;;12.48;;
40453;SDS011;26160;51.858;4.398;2023-05-07T10:04:26;19.08;;;10.35;;
40453;SDS011;26160;51.858;4.398;2023-05-07T10:06:53;27.08;;;11.43;;
40453;SDS011;26160;51.858;4.398;2023-05-07T10:09:21;93.13;;;17.02;;
40453;SDS011;26160;51.858;4.398;2023-05-07T10:11:51;14.07;;;8.88;;
40453;SDS011;26160;51.858;4.398;2023-05-07T10:14:19;11.43;;;7.50;;
40453;SDS011;26160;51.858;4.398;2023-05-07T10:16:46;28.85;;;10.05;;
40453;SDS011;26160;51.858;4.398;2023-05-07T10:19:13;23.90;;;9.48;;
40453;SDS011;26160;51.858;4.398;2023-05-07T10:21:44;14.63;;;8.23;;
40453;SDS011;26160;51.858;4.398;2023-05-07T10:24:20;13.88;;;8.20;;
40453;SDS011;26160;51.858;4.398;2023-05-07T10:26:51;21.80;;;8.75;;
40453;SDS011;26160;51.858;4.398;2023-05-07T10:29:21;14.73;;;7.60;;
40453;SDS011;26160;51.858;4.398;2023-05-07T10:32:29;10.88;;;8.63;;
40453;SDS011;26160;51.858;4.398;2023-05-07T10:34:43;10.27;;;7.88;;
40453;SDS011;26160;51.858;4.398;2023-05-07T10:37:12;12.55;;;7.88;;
40453;SDS011;26160;51.858;4.398;2023-05-07T10:39:39;8.60;;;6.90;;
40453;SDS011;26160;51.858;4.398;2023-05-07T10:42:12;9.07;;;7.47;;
40453;SDS011;26160;51.858;4.398;2023-05-07T10:44:38;10.07;;;7.18;;
40453;SDS011;26160;51.858;4.398;2023-05-07T10:47:09;10.07;;;6.55;;
40453;SDS011;26160;51.858;4.398;2023-05-07T10:52:14;11.13;;;7.50;;
40453;SDS011;26160;51.858;4.398;2023-05-07T10:54:41;13.57;;;6.68;;
40453;SDS011;26160;51.858;4.398;2023-05-07T10:59:57;11.20;;;7.82;;
40453;SDS011;26160;51.858;4.398;2023-05-07T11:02:23;11.82;;;7.72;;
40453;SDS011;26160;51.858;4.398;2023-05-07T11:05:25;11.67;;;7.07;;
40453;SDS011;26160;51.858;4.398;2023-05-07T11:07:59;9.40;;;7.10;;
40453;SDS011;26160;51.858;4.398;2023-05-07T11:13:18;7.85;;;6.43;;
40453;SDS011;26160;51.858;4.398;2023-05-07T11:16:04;10.10;;;8.18;;
40453;SDS011;26160;51.858;4.398;2023-05-07T11:18:51;12.48;;;7.78;;
40453;SDS011;26160;51.858;4.398;2023-05-07T11:21:31;11.07;;;7.63;;
40453;SDS011;26160;51.858;4.398;2023-05-07T11:23:59;10.40;;;7.75;;
40453;SDS011;26160;51.858;4.398;2023-05-07T11:26:27;10.18;;;7.47;;
40453;SDS011;26160;51.858;4.398;2023-05-07T11:28:54;10.95;;;7.88;;
40453;SDS011;26160;51.858;4.398;2023-05-07T11:31:21;31.33;;;9.45;;
40453;SDS011;26160;51.858;4.398;2023-05-07T11:33:49;11.80;;;7.97;;
40453;SDS011;26160;51.858;4.398;2023-05-07T11:36:15;10.60;;;8.73;;
40453;SDS011;26160;51.858;4.398;2023-05-07T11:38:42;9.88;;;8.00;;
40453;SDS011;26160;51.858;4.398;2023-05-07T11:41:08;9.48;;;8.15;;
40453;SDS011;26160;51.858;4.398;2023-05-07T11:43:34;12.95;;;8.63;;
40453;SDS011;26160;51.858;4.398;2023-05-07T11:46:19;11.15;;;8.20;;
40453;SDS011;26160;51.858;4.398;2023-05-07T11:48:45;11.23;;;7.90;;
40453;SDS011;26160;51.858;4.398;2023-05-07T11:51:12;9.88;;;7.60;;
40453;SDS011;26160;51.858;4.398;2023-05-07T11:53:39;7.82;;;6.25;;
40453;SDS011;26160;51.858;4.398;2023-05-07T11:56:07;11.70;;;7.57;;
40453;SDS011;26160;51.858;4.398;2023-05-07T11:58:34;8.10;;;6.03;;
40453;SDS011;26160;51.858;4.398;2023-05-07T12:01:00;11.00;;;7.53;;
40453;SDS011;26160;51.858;4.398;2023-05-07T12:03:26;11.85;;;8.23;;
40453;SDS011;26160;51.858;4.398;2023-05-07T12:05:52;10.85;;;7.65;;
40453;SDS011;26160;51.858;4.398;2023-05-07T12:08:19;11.85;;;6.93;;
40453;SDS011;26160;51.858;4.398;2023-05-07T12:10:48;10.85;;;8.77;;
40453;SDS011;26160;51.858;4.398;2023-05-07T12:13:15;8.98;;;6.53;;
40453;SDS011;26160;51.858;4.398;2023-05-07T12:15:46;11.67;;;7.40;;
40453;SDS011;26160;51.858;4.398;2023-05-07T12:18:16;10.10;;;7.53;;
40453;SDS011;26160;51.858;4.398;2023-05-07T12:20:42;16.13;;;9.55;;
40453;SDS011;26160;51.858;4.398;2023-05-07T12:23:08;12.63;;;10.55;;
40453;SDS011;26160;51.858;4.398;2023-05-07T12:25:36;11.73;;;9.27;;
40453;SDS011;26160;51.858;4.398;2023-05-07T12:28:03;11.98;;;8.75;;
40453;SDS011;26160;51.858;4.398;2023-05-07T12:30:31;13.27;;;11.18;;
40453;SDS011;26160;51.858;4.398;2023-05-07T12:33:02;12.40;;;9.45;;
40453;SDS011;26160;51.858;4.398;2023-05-07T12:35:28;15.38;;;10.20;;
40453;SDS011;26160;51.858;4.398;2023-05-07T12:37:56;12.75;;;8.18;;
40453;SDS011;26160;51.858;4.398;2023-05-07T12:40:35;12.60;;;7.88;;
40453;SDS011;26160;51.858;4.398;2023-05-07T12:45:47;11.15;;;7.25;;
40453;SDS011;26160;51.858;4.398;2023-05-07T12:48:15;19.83;;;7.20;;
40453;SDS011;26160;51.858;4.398;2023-05-07T12:50:42;11.60;;;6.13;;
40453;SDS011;26160;51.858;4.398;2023-05-07T12:53:09;11.57;;;6.53;;
40453;SDS011;26160;51.858;4.398;2023-05-07T12:55:45;11.23;;;5.47;;
40453;SDS011;26160;51.858;4.398;2023-05-07T12:58:19;10.60;;;7.40;;
40453;SDS011;26160;51.858;4.398;2023-05-07T13:00:56;7.65;;;5.25;;
40453;SDS011;26160;51.858;4.398;2023-05-07T13:05:58;10.73;;;6.60;;
40453;SDS011;26160;51.858;4.398;2023-05-07T13:08:34;11.15;;;5.70;;
40453;SDS011;26160;51.858;4.398;2023-05-07T13:11:11;8.50;;;4.97;;
40453;SDS011;26160;51.858;4.398;2023-05-07T13:13:38;12.32;;;7.60;;
40453;SDS011;26160;51.858;4.398;2023-05-07T13:16:06;11.55;;;8.05;;
40453;SDS011;26160;51.858;4.398;2023-05-07T13:18:34;13.32;;;8.05;;
40453;SDS011;26160;51.858;4.398;2023-05-07T13:23:49;9.88;;;6.25;;
40453;SDS011;26160;51.858;4.398;2023-05-07T13:26:15;10.95;;;6.47;;
40453;SDS011;26160;51.858;4.398;2023-05-07T13:28:43;10.02;;;7.05;;
40453;SDS011;26160;51.858;4.398;2023-05-07T13:31:17;11.02;;;7.57;;
40453;SDS011;26160;51.858;4.398;2023-05-07T13:33:43;14.30;;;9.30;;
40453;SDS011;26160;51.858;4.398;2023-05-07T13:36:09;11.85;;;9.60;;
40453;SDS011;26160;51.858;4.398;2023-05-07T13:38:36;14.93;;;11.68;;
40453;SDS011;26160;51.858;4.398;2023-05-07T13:41:02;12.35;;;10.65;;
40453;SDS011;26160;51.858;4.398;2023-05-07T13:43:28;13.98;;;10.50;;
40453;SDS011;26160;51.858;4.398;2023-05-07T13:45:54;12.38;;;9.23;;
40453;SDS011;26160;51.858;4.398;2023-05-07T13:48:20;15.45;;;9.57;;
40453;SDS011;26160;51.858;4.398;2023-05-07T13:50:47;12.10;;;9.18;;
40453;SDS011;26160;51.858;4.398;2023-05-07T13:53:13;15.57;;;10.73;;
40453;SDS011;26160;51.858;4.398;2023-05-07T13:55:41;12.98;;;9.13;;
40453;SDS011;26160;51.858;4.398;2023-05-07T13:58:07;12.30;;;8.68;;
40453;SDS011;26160;51.858;4.398;2023-05-07T14:00:33;13.88;;;8.40;;
40453;SDS011;26160;51.858;4.398;2023-05-07T14:02:59;14.45;;;10.85;;
40453;SDS011;26160;51.858;4.398;2023-05-07T14:05:25;11.45;;;8.82;;
40453;SDS011;26160;51.858;4.398;2023-05-07T14:07:55;17.55;;;10.93;;
40453;SDS011;26160;51.858;4.398;2023-05-07T14:10:22;14.18;;;9.32;;
40453;SDS011;26160;51.858;4.398;2023-05-07T14:12:49;9.68;;;7.63;;
40453;SDS011;26160;51.858;4.398;2023-05-07T14:18:05;13.40;;;7.60;;
40453;SDS011;26160;51.858;4.398;2023-05-07T14:20:32;13.43;;;6.75;;
40453;SDS011;26160;51.858;4.398;2023-05-07T14:22:58;12.13;;;7.47;;
40453;SDS011;26160;51.858;4.398;2023-05-07T14:25:24;11.68;;;7.10;;
40453;SDS011;26160;51.858;4.398;2023-05-07T14:27:50;16.58;;;12.90;;
40453;SDS011;26160;51.858;4.398;2023-05-07T14:30:16;23.23;;;14.18;;
40453;SDS011;26160;51.858;4.398;2023-05-07T14:32:42;18.80;;;14.48;;
40453;SDS011;26160;51.858;4.398;2023-05-07T14:35:08;22.00;;;15.02;;
40453;SDS011;26160;51.858;4.398;2023-05-07T14:37:34;23.33;;;16.10;;
40453;SDS011;26160;51.858;4.398;2023-05-07T14:40:01;24.23;;;16.30;;
40453;SDS011;26160;51.858;4.398;2023-05-07T14:42:27;22.20;;;16.65;;
40453;SDS011;26160;51.858;4.398;2023-05-07T14:44:53;26.25;;;18.63;;
40453;SDS011;26160;51.858;4.398;2023-05-07T14:47:20;23.30;;;18.30;;
40453;SDS011;26160;51.858;4.398;2023-05-07T14:49:46;25.35;;;17.38;;
40453;SDS011;26160;51.858;4.398;2023-05-07T14:52:13;25.35;;;18.55;;